sensor_id;sensor_type;location;lat;lon;timestamp;pressure;altitude;pressure_sealevel;temperature
43292;BMP280;28754;47.700;7.924;2022-10-16T00:02:21;91435.09;;;15.24
43292;BMP280;28754;47.700;7.924;2022-10-16T00:05:07;91435.59;;;15.26
43292;BMP280;28754;47.700;7.924;2022-10-16T00:07:54;91427.56;;;15.28
43292;BMP280;28754;47.700;7.924;2022-10-16T00:10:41;91423.16;;;15.28
43292;BMP280;28754;47.700;7.924;2022-10-16T00:13:27;91412.84;;;15.28
43292;BMP280;28754;47.700;7.924;2022-10-16T00:16:18;91413.06;;;15.32
43292;BMP280;28754;47.700;7.924;2022-10-16T00:19:05;91414.56;;;15.33
43292;BMP280;28754;47.700;7.924;2022-10-16T00:21:51;91420.50;;;15.33
43292;BMP280;28754;47.700;7.924;2022-10-16T00:24:38;91426.13;;;15.35
43292;BMP280;28754;47.700;7.924;2022-10-16T00:27:25;91436.47;;;15.35
43292;BMP280;28754;47.700;7.924;2022-10-16T00:30:12;91433.88;;;15.35
43292;BMP280;28754;47.700;7.924;2022-10-16T00:32:58;91441.63;;;15.35
43292;BMP280;28754;47.700;7.924;2022-10-16T00:35:45;91431.03;;;15.37
43292;BMP280;28754;47.700;7.924;2022-10-16T00:38:33;91442.88;;;15.38
43292;BMP280;28754;47.700;7.924;2022-10-16T00:41:21;91443.91;;;15.37
43292;BMP280;28754;47.700;7.924;2022-10-16T00:44:50;91449.34;;;15.35
43292;BMP280;28754;47.700;7.924;2022-10-16T00:47:47;91450.41;;;15.34
43292;BMP280;28754;47.700;7.924;2022-10-16T00:50:36;91459.69;;;15.35
43292;BMP280;28754;47.700;7.924;2022-10-16T00:53:25;91452.25;;;15.34
43292;BMP280;28754;47.700;7.924;2022-10-16T00:56:12;91453.28;;;15.33
43292;BMP280;28754;47.700;7.924;2022-10-16T00:59:02;91458.91;;;15.35
43292;BMP280;28754;47.700;7.924;2022-10-16T01:01:50;91445.53;;;15.33
43292;BMP280;28754;47.700;7.924;2022-10-16T01:04:59;91460.25;;;15.32
43292;BMP280;28754;47.700;7.924;2022-10-16T01:08:13;91463.91;;;15.31
43292;BMP280;28754;47.700;7.924;2022-10-16T01:11:33;91458.72;;;15.31
43292;BMP280;28754;47.700;7.924;2022-10-16T01:14:47;91444.56;;;15.29
43292;BMP280;28754;47.700;7.924;2022-10-16T01:18:06;91453.16;;;15.24
43292;BMP280;28754;47.700;7.924;2022-10-16T01:21:10;91463.47;;;15.24
43292;BMP280;28754;47.700;7.924;2022-10-16T01:24:08;91471.50;;;15.23
43292;BMP280;28754;47.700;7.924;2022-10-16T01:27:20;91463.28;;;15.21
43292;BMP280;28754;47.700;7.924;2022-10-16T01:30:23;91459.47;;;15.18
43292;BMP280;28754;47.700;7.924;2022-10-16T01:33:21;91465.38;;;15.19
43292;BMP280;28754;47.700;7.924;2022-10-16T01:36:24;91463.06;;;15.17
43292;BMP280;28754;47.700;7.924;2022-10-16T01:39:14;91463.81;;;15.18
43292;BMP280;28754;47.700;7.924;2022-10-16T01:42:19;91464.69;;;15.13
43292;BMP280;28754;47.700;7.924;2022-10-16T01:45:08;91470.91;;;15.12
43292;BMP280;28754;47.700;7.924;2022-10-16T01:48:00;91460.84;;;15.11
43292;BMP280;28754;47.700;7.924;2022-10-16T01:51:17;91455.69;;;15.11
43292;BMP280;28754;47.700;7.924;2022-10-16T01:54:08;91457.00;;;15.09
43292;BMP280;28754;47.700;7.924;2022-10-16T01:56:56;91466.25;;;15.09
43292;BMP280;28754;47.700;7.924;2022-10-16T01:59:53;91447.44;;;15.09
43292;BMP280;28754;47.700;7.924;2022-10-16T02:07:08;91443.56;;;14.93
43292;BMP280;28754;47.700;7.924;2022-10-16T02:09:55;91445.88;;;14.95
43292;BMP280;28754;47.700;7.924;2022-10-16T02:13:00;91451.31;;;14.93
43292;BMP280;28754;47.700;7.924;2022-10-16T02:15:48;91455.13;;;14.96
43292;BMP280;28754;47.700;7.924;2022-10-16T02:18:35;91464.88;;;14.99
43292;BMP280;28754;47.700;7.924;2022-10-16T02:21:51;91456.09;;;15.00
43292;BMP280;28754;47.700;7.924;2022-10-16T02:24:58;91464.88;;;14.99
43292;BMP280;28754;47.700;7.924;2022-10-16T02:28:17;91464.88;;;14.99
43292;BMP280;28754;47.700;7.924;2022-10-16T02:31:10;91479.59;;;14.98
43292;BMP280;28754;47.700;7.924;2022-10-16T02:33:59;91473.66;;;14.98
43292;BMP280;28754;47.700;7.924;2022-10-16T02:36:50;91461.03;;;14.96
43292;BMP280;28754;47.700;7.924;2022-10-16T02:39:38;91469.09;;;14.95
43292;BMP280;28754;47.700;7.924;2022-10-16T02:42:35;91473.66;;;14.98
43292;BMP280;28754;47.700;7.924;2022-10-16T02:45:23;91472.34;;;15.00
43292;BMP280;28754;47.700;7.924;2022-10-16T02:48:10;91466.41;;;15.00
43292;BMP280;28754;47.700;7.924;2022-10-16T02:50:56;91467.94;;;15.01
43292;BMP280;28754;47.700;7.924;2022-10-16T02:53:43;91474.06;;;15.05
43292;BMP280;28754;47.700;7.924;2022-10-16T02:56:30;91469.66;;;15.05
43292;BMP280;28754;47.700;7.924;2022-10-16T02:59:17;91467.41;;;15.04
43292;BMP280;28754;47.700;7.924;2022-10-16T03:02:04;91486.47;;;15.03
43292;BMP280;28754;47.700;7.924;2022-10-16T03:04:51;91484.66;;;15.03
43292;BMP280;28754;47.700;7.924;2022-10-16T03:07:37;91471.56;;;15.00
43292;BMP280;28754;47.700;7.924;2022-10-16T03:10:24;91477.50;;;15.00
43292;BMP280;28754;47.700;7.924;2022-10-16T03:13:11;91473.09;;;15.01
43292;BMP280;28754;47.700;7.924;2022-10-16T03:15:57;91479.03;;;15.01
43292;BMP280;28754;47.700;7.924;2022-10-16T03:18:48;91481.31;;;15.03
43292;BMP280;28754;47.700;7.924;2022-10-16T03:21:36;91482.06;;;15.03
43292;BMP280;28754;47.700;7.924;2022-10-16T03:24:23;91475.13;;;15.04
43292;BMP280;28754;47.700;7.924;2022-10-16T03:27:09;91470.94;;;15.08
43292;BMP280;28754;47.700;7.924;2022-10-16T03:29:56;91466.75;;;15.11
43292;BMP280;28754;47.700;7.924;2022-10-16T03:32:44;91480.16;;;15.13
43292;BMP280;28754;47.700;7.924;2022-10-16T03:35:32;91476.25;;;15.16
43292;BMP280;28754;47.700;7.924;2022-10-16T03:38:20;91475.97;;;15.17
43292;BMP280;28754;47.700;7.924;2022-10-16T03:41:07;91491.16;;;15.19
43292;BMP280;28754;47.700;7.924;2022-10-16T03:43:54;91480.38;;;15.17
43292;BMP280;28754;47.700;7.924;2022-10-16T03:46:40;91479.78;;;15.20
43292;BMP280;28754;47.700;7.924;2022-10-16T03:49:27;91484.19;;;15.19
43292;BMP280;28754;47.700;7.924;2022-10-16T03:52:14;91470.72;;;15.22
43292;BMP280;28754;47.700;7.924;2022-10-16T03:55:00;91483.63;;;15.22
43292;BMP280;28754;47.700;7.924;2022-10-16T03:57:47;91478.94;;;15.24
43292;BMP280;28754;47.700;7.924;2022-10-16T04:05:07;91484.91;;;15.25
43292;BMP280;28754;47.700;7.924;2022-10-16T04:07:53;91482.78;;;15.27
43292;BMP280;28754;47.700;7.924;2022-10-16T04:10:44;91490.25;;;15.28
43292;BMP280;28754;47.700;7.924;2022-10-16T04:13:31;91495.41;;;15.28
43292;BMP280;28754;47.700;7.924;2022-10-16T04:16:18;91493.38;;;15.25
43292;BMP280;28754;47.700;7.924;2022-10-16T04:19:04;91486.97;;;15.23
43292;BMP280;28754;47.700;7.924;2022-10-16T04:21:51;91492.06;;;15.28
43292;BMP280;28754;47.700;7.924;2022-10-16T04:24:38;91482.50;;;15.28
43292;BMP280;28754;47.700;7.924;2022-10-16T04:27:25;91485.56;;;15.30
43292;BMP280;28754;47.700;7.924;2022-10-16T04:30:11;91486.53;;;15.34
43292;BMP280;28754;47.700;7.924;2022-10-16T04:32:58;91489.59;;;15.36
43292;BMP280;28754;47.700;7.924;2022-10-16T04:35:45;91487.03;;;15.36
43292;BMP280;28754;47.700;7.924;2022-10-16T04:38:31;91498.88;;;15.37
43292;BMP280;28754;47.700;7.924;2022-10-16T04:41:18;91504.03;;;15.37
43292;BMP280;28754;47.700;7.924;2022-10-16T04:44:05;91496.78;;;15.39
43292;BMP280;28754;47.700;7.924;2022-10-16T04:46:51;91503.97;;;15.42
43292;BMP280;28754;47.700;7.924;2022-10-16T04:49:38;91497.25;;;15.41
43292;BMP280;28754;47.700;7.924;2022-10-16T04:52:25;91499.09;;;15.41
43292;BMP280;28754;47.700;7.924;2022-10-16T04:55:12;91509.63;;;15.44
43292;BMP280;28754;47.700;7.924;2022-10-16T04:57:59;91499.28;;;15.44
43292;BMP280;28754;47.700;7.924;2022-10-16T05:00:46;91503.88;;;15.47
43292;BMP280;28754;47.700;7.924;2022-10-16T05:03:33;91505.41;;;15.48
43292;BMP280;28754;47.700;7.924;2022-10-16T05:06:20;91500.72;;;15.50
43292;BMP280;28754;47.700;7.924;2022-10-16T05:09:07;91499.97;;;15.49
43292;BMP280;28754;47.700;7.924;2022-10-16T05:11:54;91500.72;;;15.50
43292;BMP280;28754;47.700;7.924;2022-10-16T05:14:41;91495.06;;;15.48
43292;BMP280;28754;47.700;7.924;2022-10-16T05:17:27;91490.41;;;15.50
43292;BMP280;28754;47.700;7.924;2022-10-16T06:16:59;91526.34;;;15.46
43292;BMP280;28754;47.700;7.924;2022-10-16T06:39:12;91570.69;;;15.80
43292;BMP280;28754;47.700;7.924;2022-10-16T06:42:51;91564.50;;;15.81
43292;BMP280;28754;47.700;7.924;2022-10-16T07:01:24;91604.06;;;16.08
43292;BMP280;28754;47.700;7.924;2022-10-16T07:05:15;91599.09;;;16.12
43292;BMP280;28754;47.700;7.924;2022-10-16T08:18:15;91636.06;;;27.63
43292;BMP280;28754;47.700;7.924;2022-10-16T08:21:49;91633.38;;;26.37
43292;BMP280;28754;47.700;7.924;2022-10-16T08:25:03;91641.78;;;26.84
43292;BMP280;28754;47.700;7.924;2022-10-16T08:28:53;91630.94;;;27.07
43292;BMP280;28754;47.700;7.924;2022-10-16T08:31:49;91639.53;;;28.48
43292;BMP280;28754;47.700;7.924;2022-10-16T08:34:41;91638.81;;;29.52
43292;BMP280;28754;47.700;7.924;2022-10-16T08:37:32;91640.91;;;30.25
43292;BMP280;28754;47.700;7.924;2022-10-16T08:43:35;91640.84;;;30.92
43292;BMP280;28754;47.700;7.924;2022-10-16T08:50:15;91654.22;;;30.39
43292;BMP280;28754;47.700;7.924;2022-10-16T08:53:14;91658.44;;;30.57
43292;BMP280;28754;47.700;7.924;2022-10-16T08:56:02;91665.38;;;30.76
43292;BMP280;28754;47.700;7.924;2022-10-16T08:59:00;91652.28;;;31.17
43292;BMP280;28754;47.700;7.924;2022-10-16T09:01:53;91648.53;;;31.28
43292;BMP280;28754;47.700;7.924;2022-10-16T09:08:42;91653.00;;;31.11
43292;BMP280;28754;47.700;7.924;2022-10-16T09:12:11;91657.50;;;31.00
43292;BMP280;28754;47.700;7.924;2022-10-16T09:21:56;91661.03;;;32.62
43292;BMP280;28754;47.700;7.924;2022-10-16T09:24:55;91667.22;;;33.34
43292;BMP280;28754;47.700;7.924;2022-10-16T09:28:00;91661.72;;;32.94
43292;BMP280;28754;47.700;7.924;2022-10-16T09:30:57;91667.50;;;31.68
43292;BMP280;28754;47.700;7.924;2022-10-16T09:34:02;91664.13;;;31.75
43292;BMP280;28754;47.700;7.924;2022-10-16T09:36:59;91667.50;;;32.51
43292;BMP280;28754;47.700;7.924;2022-10-16T09:40:11;91661.44;;;32.51
43292;BMP280;28754;47.700;7.924;2022-10-16T09:43:28;91663.31;;;31.40
43292;BMP280;28754;47.700;7.924;2022-10-16T09:46:49;91662.63;;;30.05
43292;BMP280;28754;47.700;7.924;2022-10-16T09:50:31;91670.28;;;28.66
43292;BMP280;28754;47.700;7.924;2022-10-16T09:53:56;91672.28;;;27.73
43292;BMP280;28754;47.700;7.924;2022-10-16T09:57:16;91671.84;;;27.05
43292;BMP280;28754;47.700;7.924;2022-10-16T10:00:17;91661.69;;;26.47
43292;BMP280;28754;47.700;7.924;2022-10-16T10:03:15;91666.50;;;25.92
43292;BMP280;28754;47.700;7.924;2022-10-16T10:06:30;91660.06;;;25.75
43292;BMP280;28754;47.700;7.924;2022-10-16T10:09:37;91662.72;;;26.61
43292;BMP280;28754;47.700;7.924;2022-10-16T10:12:32;91674.41;;;27.64
43292;BMP280;28754;47.700;7.924;2022-10-16T10:15:22;91682.16;;;29.15
43292;BMP280;28754;47.700;7.924;2022-10-16T10:18:24;91681.28;;;30.89
43292;BMP280;28754;47.700;7.924;2022-10-16T10:21:20;91678.88;;;32.52
43292;BMP280;28754;47.700;7.924;2022-10-16T10:36:39;91679.31;;;34.06
43292;BMP280;28754;47.700;7.924;2022-10-16T13:28:06;91645.00;;;27.59
43292;BMP280;28754;47.700;7.924;2022-10-16T13:31:45;91631.09;;;27.84
43292;BMP280;28754;47.700;7.924;2022-10-16T13:34:49;91628.50;;;28.10
43292;BMP280;28754;47.700;7.924;2022-10-16T13:38:39;91636.75;;;28.08
43292;BMP280;28754;47.700;7.924;2022-10-16T13:41:44;91632.09;;;27.98
43292;BMP280;28754;47.700;7.924;2022-10-16T13:44:50;91628.63;;;28.20
43292;BMP280;28754;47.700;7.924;2022-10-16T13:47:48;91622.66;;;28.23
43292;BMP280;28754;47.700;7.924;2022-10-16T13:51:57;91621.81;;;28.16
43292;BMP280;28754;47.700;7.924;2022-10-16T13:55:17;91625.44;;;28.08
43292;BMP280;28754;47.700;7.924;2022-10-16T13:58:12;91630.44;;;27.91
43292;BMP280;28754;47.700;7.924;2022-10-16T14:01:24;91637.44;;;27.80
43292;BMP280;28754;47.700;7.924;2022-10-16T14:04:25;91642.72;;;27.58
43292;BMP280;28754;47.700;7.924;2022-10-16T14:08:33;91641.19;;;27.12
43292;BMP280;28754;47.700;7.924;2022-10-16T14:11:25;91633.22;;;26.87
43292;BMP280;28754;47.700;7.924;2022-10-16T14:14:13;91640.25;;;27.01
43292;BMP280;28754;47.700;7.924;2022-10-16T14:17:02;91641.75;;;27.02
43292;BMP280;28754;47.700;7.924;2022-10-16T14:20:05;91643.53;;;27.17
43292;BMP280;28754;47.700;7.924;2022-10-16T14:23:50;91654.88;;;27.21
43292;BMP280;28754;47.700;7.924;2022-10-16T14:27:20;91653.25;;;26.94
43292;BMP280;28754;47.700;7.924;2022-10-16T14:39:41;91647.50;;;26.52
43292;BMP280;28754;47.700;7.924;2022-10-16T15:43:17;91674.84;;;24.52
43292;BMP280;28754;47.700;7.924;2022-10-16T15:46:27;91662.63;;;24.17
43292;BMP280;28754;47.700;7.924;2022-10-16T16:30:27;91696.19;;;22.36
43292;BMP280;28754;47.700;7.924;2022-10-16T16:34:31;91725.72;;;22.28
43292;BMP280;28754;47.700;7.924;2022-10-16T16:42:13;91715.25;;;22.16
43292;BMP280;28754;47.700;7.924;2022-10-16T16:44:59;91725.22;;;22.14
43292;BMP280;28754;47.700;7.924;2022-10-16T16:47:47;91720.06;;;21.98
43292;BMP280;28754;47.700;7.924;2022-10-16T16:50:39;91728.00;;;21.81
43292;BMP280;28754;47.700;7.924;2022-10-16T16:53:26;91727.22;;;21.60
43292;BMP280;28754;47.700;7.924;2022-10-16T16:56:18;91745.63;;;21.47
43292;BMP280;28754;47.700;7.924;2022-10-16T17:13:08;91756.84;;;20.77
43292;BMP280;28754;47.700;7.924;2022-10-16T17:16:06;91764.34;;;20.62
43292;BMP280;28754;47.700;7.924;2022-10-16T17:19:22;91770.47;;;20.49
43292;BMP280;28754;47.700;7.924;2022-10-16T17:22:22;91774.13;;;20.56
43292;BMP280;28754;47.700;7.924;2022-10-16T17:25:11;91785.44;;;20.52
43292;BMP280;28754;47.700;7.924;2022-10-16T17:27:57;91792.78;;;20.50
43292;BMP280;28754;47.700;7.924;2022-10-16T17:30:44;91789.09;;;20.51
43292;BMP280;28754;47.700;7.924;2022-10-16T17:33:31;91793.41;;;20.47
43292;BMP280;28754;47.700;7.924;2022-10-16T17:36:19;91784.22;;;20.41
43292;BMP280;28754;47.700;7.924;2022-10-16T17:39:11;91802.72;;;20.31
43292;BMP280;28754;47.700;7.924;2022-10-16T17:41:58;91799.78;;;20.24
43292;BMP280;28754;47.700;7.924;2022-10-16T17:44:54;91800.72;;;20.28
43292;BMP280;28754;47.700;7.924;2022-10-16T17:49:17;91818.03;;;20.32
43292;BMP280;28754;47.700;7.924;2022-10-16T17:52:06;91816.47;;;20.31
43292;BMP280;28754;47.700;7.924;2022-10-16T17:54:53;91821.38;;;20.33
43292;BMP280;28754;47.700;7.924;2022-10-16T17:57:40;91823.38;;;20.44
43292;BMP280;28754;47.700;7.924;2022-10-16T18:00:27;91830.72;;;20.51
43292;BMP280;28754;47.700;7.924;2022-10-16T18:03:15;91840.84;;;20.52
43292;BMP280;28754;47.700;7.924;2022-10-16T18:06:04;91840.88;;;20.61
43292;BMP280;28754;47.700;7.924;2022-10-16T18:08:52;91844.09;;;20.74
43292;BMP280;28754;47.700;7.924;2022-10-16T18:11:40;91836.75;;;20.85
43292;BMP280;28754;47.700;7.924;2022-10-16T18:14:30;91845.63;;;20.92
43292;BMP280;28754;47.700;7.924;2022-10-16T18:17:17;91846.38;;;20.93
43292;BMP280;28754;47.700;7.924;2022-10-16T18:20:25;91845.94;;;20.91
43292;BMP280;28754;47.700;7.924;2022-10-16T18:23:53;91838.56;;;20.76
43292;BMP280;28754;47.700;7.924;2022-10-16T18:26:41;91848.22;;;20.75
43292;BMP280;28754;47.700;7.924;2022-10-16T18:29:30;91856.34;;;20.82
43292;BMP280;28754;47.700;7.924;2022-10-16T18:32:17;91864.91;;;20.83
43292;BMP280;28754;47.700;7.924;2022-10-16T18:35:38;91866.44;;;20.84
43292;BMP280;28754;47.700;7.924;2022-10-16T18:38:37;91865.22;;;20.81
43292;BMP280;28754;47.700;7.924;2022-10-16T18:41:25;91861.88;;;20.81
43292;BMP280;28754;47.700;7.924;2022-10-16T18:44:12;91863.69;;;20.80
43292;BMP280;28754;47.700;7.924;2022-10-16T18:46:59;91858.34;;;20.77
43292;BMP280;28754;47.700;7.924;2022-10-16T18:49:48;91866.16;;;20.77
43292;BMP280;28754;47.700;7.924;2022-10-16T18:52:35;91870.13;;;20.74
43292;BMP280;28754;47.700;7.924;2022-10-16T18:55:28;91869.06;;;20.75
43292;BMP280;28754;47.700;7.924;2022-10-16T18:58:16;91873.78;;;20.73
43292;BMP280;28754;47.700;7.924;2022-10-16T19:05:27;91874.69;;;20.61
43292;BMP280;28754;47.700;7.924;2022-10-16T19:08:26;91868.25;;;20.58
43292;BMP280;28754;47.700;7.924;2022-10-16T19:11:19;91877.09;;;20.57
43292;BMP280;28754;47.700;7.924;2022-10-16T19:14:10;91879.41;;;20.59
43292;BMP280;28754;47.700;7.924;2022-10-16T19:16:58;91888.88;;;20.55
43292;BMP280;28754;47.700;7.924;2022-10-16T19:19:45;91893.16;;;20.51
43292;BMP280;28754;47.700;7.924;2022-10-16T19:22:33;91897.13;;;20.48
43292;BMP280;28754;47.700;7.924;2022-10-16T19:25:38;91896.53;;;20.43
43292;BMP280;28754;47.700;7.924;2022-10-16T19:28:26;91897.75;;;20.45
43292;BMP280;28754;47.700;7.924;2022-10-16T19:31:17;91894.69;;;20.43
43292;BMP280;28754;47.700;7.924;2022-10-16T19:34:05;91905.38;;;20.42
43292;BMP280;28754;47.700;7.924;2022-10-16T19:36:52;91908.31;;;20.40
43292;BMP280;28754;47.700;7.924;2022-10-16T19:39:39;91912.59;;;20.36
43292;BMP280;28754;47.700;7.924;2022-10-16T19:42:26;91914.25;;;20.32
43292;BMP280;28754;47.700;7.924;2022-10-16T19:45:13;91914.06;;;20.29
43292;BMP280;28754;47.700;7.924;2022-10-16T19:51:29;91928.88;;;20.20
43292;BMP280;28754;47.700;7.924;2022-10-16T19:54:36;91927.19;;;20.16
43292;BMP280;28754;47.700;7.924;2022-10-16T19:57:25;91937.13;;;20.14
43292;BMP280;28754;47.700;7.924;2022-10-16T20:00:12;91935.59;;;20.13
43292;BMP280;28754;47.700;7.924;2022-10-16T20:02:59;91933.13;;;20.08
43292;BMP280;28754;47.700;7.924;2022-10-16T20:06:21;91944.78;;;20.10
43292;BMP280;28754;47.700;7.924;2022-10-16T20:10:09;91942.75;;;20.07
43292;BMP280;28754;47.700;7.924;2022-10-16T20:13:11;91950.25;;;20.09
43292;BMP280;28754;47.700;7.924;2022-10-16T20:16:12;91954.69;;;20.08
43292;BMP280;28754;47.700;7.924;2022-10-16T20:28:00;91959.63;;;19.88
43292;BMP280;28754;47.700;7.924;2022-10-16T22:00:20;91982.00;;;19.11
43292;BMP280;28754;47.700;7.924;2022-10-16T22:03:07;91994.50;;;19.09
43292;BMP280;28754;47.700;7.924;2022-10-16T22:05:53;91984.72;;;19.06
43292;BMP280;28754;47.700;7.924;2022-10-16T22:08:41;91990.19;;;19.04
43292;BMP280;28754;47.700;7.924;2022-10-16T22:11:35;91989.41;;;19.04
43292;BMP280;28754;47.700;7.924;2022-10-16T22:14:22;91993.84;;;19.03
43292;BMP280;28754;47.700;7.924;2022-10-16T22:17:09;91991.06;;;19.00
43292;BMP280;28754;47.700;7.924;2022-10-16T22:19:55;91986.63;;;19.00
43292;BMP280;28754;47.700;7.924;2022-10-16T22:22:42;91996.84;;;18.97
43292;BMP280;28754;47.700;7.924;2022-10-16T22:25:29;91996.06;;;18.96
43292;BMP280;28754;47.700;7.924;2022-10-16T22:28:16;91991.19;;;18.95
43292;BMP280;28754;47.700;7.924;2022-10-16T22:31:10;91982.41;;;18.91
43292;BMP280;28754;47.700;7.924;2022-10-16T22:33:59;91991.22;;;18.90
43292;BMP280;28754;47.700;7.924;2022-10-16T22:36:48;91992.59;;;18.88
43292;BMP280;28754;47.700;7.924;2022-10-16T22:39:35;91993.66;;;18.87
43292;BMP280;28754;47.700;7.924;2022-10-16T22:42:22;91987.22;;;18.84
43292;BMP280;28754;47.700;7.924;2022-10-16T22:45:09;91981.09;;;18.80
43292;BMP280;28754;47.700;7.924;2022-10-16T22:47:56;91981.09;;;18.80
43292;BMP280;28754;47.700;7.924;2022-10-16T22:50:42;91977.34;;;18.73
43292;BMP280;28754;47.700;7.924;2022-10-16T22:53:29;91986.75;;;18.69
43292;BMP280;28754;47.700;7.924;2022-10-16T22:56:19;91987.81;;;18.68
43292;BMP280;28754;47.700;7.924;2022-10-16T22:59:08;91986.56;;;18.65
43292;BMP280;28754;47.700;7.924;2022-10-16T23:01:55;91985.03;;;18.64
43292;BMP280;28754;47.700;7.924;2022-10-16T23:04:41;91994.91;;;18.62
43292;BMP280;28754;47.700;7.924;2022-10-16T23:07:28;91997.81;;;18.61
43292;BMP280;28754;47.700;7.924;2022-10-16T23:10:16;91992.91;;;18.59
43292;BMP280;28754;47.700;7.924;2022-10-16T23:13:04;91992.44;;;18.57
43292;BMP280;28754;47.700;7.924;2022-10-16T23:15:51;91990.44;;;18.55
43292;BMP280;28754;47.700;7.924;2022-10-16T23:18:38;91992.53;;;18.53
43292;BMP280;28754;47.700;7.924;2022-10-16T23:21:25;91997.72;;;18.53
43292;BMP280;28754;47.700;7.924;2022-10-16T23:24:12;91992.06;;;18.51
43292;BMP280;28754;47.700;7.924;2022-10-16T23:26:59;91999.34;;;18.49
43292;BMP280;28754;47.700;7.924;2022-10-16T23:29:45;91990.81;;;18.48
43292;BMP280;28754;47.700;7.924;2022-10-16T23:32:33;92000.13;;;18.49
43292;BMP280;28754;47.700;7.924;2022-10-16T23:35:19;91984.38;;;18.46
43292;BMP280;28754;47.700;7.924;2022-10-16T23:38:06;91988.03;;;18.45
43292;BMP280;28754;47.700;7.924;2022-10-16T23:40:55;92000.81;;;18.41
43292;BMP280;28754;47.700;7.924;2022-10-16T23:43:42;92003.22;;;18.38
43292;BMP280;28754;47.700;7.924;2022-10-16T23:46:29;91998.41;;;18.31
43292;BMP280;28754;47.700;7.924;2022-10-16T23:49:16;91998.78;;;18.25
43292;BMP280;28754;47.700;7.924;2022-10-16T23:52:03;91998.41;;;18.18
43292;BMP280;28754;47.700;7.924;2022-10-16T23:54:50;91995.31;;;18.16
43292;BMP280;28754;47.700;7.924;2022-10-16T23:57:37;91996.84;;;18.17
